sensor_id;sensor_type;location;lat;lon;timestamp;P1;P2;P0
32503;PMS5003;18953;45.930;13.640;2023-03-12T00:05:11;6;5;
32503;PMS5003;18953;45.930;13.640;2023-03-12T00:10:27;4;4;
32503;PMS5003;18953;45.930;13.640;2023-03-12T00:15:44;6;5;
32503;PMS5003;18953;45.930;13.640;2023-03-12T00:21:00;6;5;
32503;PMS5003;18953;45.930;13.640;2023-03-12T00:26:17;5;4;
32503;PMS5003;18953;45.930;13.640;2023-03-12T00:31:33;5;4;
32503;PMS5003;18953;45.930;13.640;2023-03-12T00:36:49;8;6;
32503;PMS5003;18953;45.930;13.640;2023-03-12T00:42:05;3;2;
32503;PMS5003;18953;45.930;13.640;2023-03-12T00:47:22;2;2;
32503;PMS5003;18953;45.930;13.640;2023-03-12T00:52:38;3;3;
32503;PMS5003;18953;45.930;13.640;2023-03-12T00:57:55;3;3;
32503;PMS5003;18953;45.930;13.640;2023-03-12T01:03:11;3;3;
32503;PMS5003;18953;45.930;13.640;2023-03-12T01:08:27;2;2;
32503;PMS5003;18953;45.930;13.640;2023-03-12T01:13:44;2;2;
32503;PMS5003;18953;45.930;13.640;2023-03-12T01:19:01;1;1;
32503;PMS5003;18953;45.930;13.640;2023-03-12T01:24:16;2;2;
32503;PMS5003;18953;45.930;13.640;2023-03-12T01:29:33;3;2;
32503;PMS5003;18953;45.930;13.640;2023-03-12T01:34:49;2;2;
32503;PMS5003;18953;45.930;13.640;2023-03-12T01:40:06;5;3;
32503;PMS5003;18953;45.930;13.640;2023-03-12T01:46:27;3;2;
32503;PMS5003;18953;45.930;13.640;2023-03-12T01:50:38;2;2;
32503;PMS5003;18953;45.930;13.640;2023-03-12T01:55:55;3;3;
32503;PMS5003;18953;45.930;13.640;2023-03-12T02:01:11;1;1;
32503;PMS5003;18953;45.930;13.640;2023-03-12T02:06:29;2;2;
32503;PMS5003;18953;45.930;13.640;2023-03-12T02:11:44;3;3;
32503;PMS5003;18953;45.930;13.640;2023-03-12T02:17:00;2;2;
32503;PMS5003;18953;45.930;13.640;2023-03-12T02:22:17;2;2;
32503;PMS5003;18953;45.930;13.640;2023-03-12T02:27:33;4;4;
32503;PMS5003;18953;45.930;13.640;2023-03-12T02:32:49;2;2;
32503;PMS5003;18953;45.930;13.640;2023-03-12T02:38:24;2;2;
32503;PMS5003;18953;45.930;13.640;2023-03-12T02:43:23;3;3;
32503;PMS5003;18953;45.930;13.640;2023-03-12T02:48:39;4;4;
32503;PMS5003;18953;45.930;13.640;2023-03-12T02:53:55;2;2;
32503;PMS5003;18953;45.930;13.640;2023-03-12T02:59:12;3;3;
32503;PMS5003;18953;45.930;13.640;2023-03-12T03:04:28;2;2;
32503;PMS5003;18953;45.930;13.640;2023-03-12T03:09:44;2;2;
32503;PMS5003;18953;45.930;13.640;2023-03-12T03:15:01;3;3;
32503;PMS5003;18953;45.930;13.640;2023-03-12T03:20:17;4;3;
32503;PMS5003;18953;45.930;13.640;2023-03-12T03:25:33;2;2;
32503;PMS5003;18953;45.930;13.640;2023-03-12T03:30:51;3;2;
32503;PMS5003;18953;45.930;13.640;2023-03-12T03:36:07;4;4;
32503;PMS5003;18953;45.930;13.640;2023-03-12T03:41:22;2;2;
32503;PMS5003;18953;45.930;13.640;2023-03-12T03:46:39;2;2;
32503;PMS5003;18953;45.930;13.640;2023-03-12T03:51:55;3;3;
32503;PMS5003;18953;45.930;13.640;2023-03-12T03:57:11;4;4;
32503;PMS5003;18953;45.930;13.640;2023-03-12T04:02:28;2;2;
32503;PMS5003;18953;45.930;13.640;2023-03-12T04:07:44;2;2;
32503;PMS5003;18953;45.930;13.640;2023-03-12T04:13:01;2;2;
32503;PMS5003;18953;45.930;13.640;2023-03-12T04:18:17;4;4;
32503;PMS5003;18953;45.930;13.640;2023-03-12T04:23:34;3;2;
32503;PMS5003;18953;45.930;13.640;2023-03-12T04:28:50;3;3;
32503;PMS5003;18953;45.930;13.640;2023-03-12T04:34:06;4;4;
32503;PMS5003;18953;45.930;13.640;2023-03-12T04:39:22;2;2;
32503;PMS5003;18953;45.930;13.640;2023-03-12T04:44:39;4;4;
32503;PMS5003;18953;45.930;13.640;2023-03-12T04:49:55;2;2;
32503;PMS5003;18953;45.930;13.640;2023-03-12T04:55:12;3;2;
32503;PMS5003;18953;45.930;13.640;2023-03-12T05:00:28;5;4;
32503;PMS5003;18953;45.930;13.640;2023-03-12T05:05:44;6;5;
32503;PMS5003;18953;45.930;13.640;2023-03-12T05:11:01;3;3;
32503;PMS5003;18953;45.930;13.640;2023-03-12T05:16:17;5;4;
32503;PMS5003;18953;45.930;13.640;2023-03-12T05:21:34;4;4;
32503;PMS5003;18953;45.930;13.640;2023-03-12T05:26:50;2;2;
32503;PMS5003;18953;45.930;13.640;2023-03-12T05:32:07;3;3;
32503;PMS5003;18953;45.930;13.640;2023-03-12T05:37:23;3;2;
32503;PMS5003;18953;45.930;13.640;2023-03-12T05:42:39;2;2;
32503;PMS5003;18953;45.930;13.640;2023-03-12T05:47:55;2;2;
32503;PMS5003;18953;45.930;13.640;2023-03-12T05:53:12;2;2;
32503;PMS5003;18953;45.930;13.640;2023-03-12T05:58:28;4;3;
32503;PMS5003;18953;45.930;13.640;2023-03-12T06:03:45;4;4;
32503;PMS5003;18953;45.930;13.640;2023-03-12T06:09:01;5;5;
32503;PMS5003;18953;45.930;13.640;2023-03-12T06:14:17;5;4;
32503;PMS5003;18953;45.930;13.640;2023-03-12T06:19:34;4;3;
32503;PMS5003;18953;45.930;13.640;2023-03-12T06:24:50;4;4;
32503;PMS5003;18953;45.930;13.640;2023-03-12T06:30:07;2;2;
32503;PMS5003;18953;45.930;13.640;2023-03-12T06:35:23;3;3;
32503;PMS5003;18953;45.930;13.640;2023-03-12T06:40:39;4;4;
32503;PMS5003;18953;45.930;13.640;2023-03-12T06:45:56;4;3;
32503;PMS5003;18953;45.930;13.640;2023-03-12T06:51:13;5;5;
32503;PMS5003;18953;45.930;13.640;2023-03-12T06:56:29;4;4;
32503;PMS5003;18953;45.930;13.640;2023-03-12T07:01:45;6;5;
32503;PMS5003;18953;45.930;13.640;2023-03-12T07:07:01;5;5;
32503;PMS5003;18953;45.930;13.640;2023-03-12T07:12:18;4;2;
32503;PMS5003;18953;45.930;13.640;2023-03-12T07:17:34;4;4;
32503;PMS5003;18953;45.930;13.640;2023-03-12T07:22:50;4;4;
32503;PMS5003;18953;45.930;13.640;2023-03-12T07:28:07;20;17;
32503;PMS5003;18953;45.930;13.640;2023-03-12T07:33:23;3;3;
32503;PMS5003;18953;45.930;13.640;2023-03-12T07:38:40;2;2;
32503;PMS5003;18953;45.930;13.640;2023-03-12T07:43:57;5;2;
32503;PMS5003;18953;45.930;13.640;2023-03-12T07:49:13;2;2;
32503;PMS5003;18953;45.930;13.640;2023-03-12T07:54:30;3;3;
32503;PMS5003;18953;45.930;13.640;2023-03-12T07:59:46;3;2;
32503;PMS5003;18953;45.930;13.640;2023-03-12T08:05:02;3;3;
32503;PMS5003;18953;45.930;13.640;2023-03-12T08:10:19;3;2;
32503;PMS5003;18953;45.930;13.640;2023-03-12T08:15:35;2;2;
32503;PMS5003;18953;45.930;13.640;2023-03-12T08:20:52;8;7;
32503;PMS5003;18953;45.930;13.640;2023-03-12T08:26:08;11;10;
32503;PMS5003;18953;45.930;13.640;2023-03-12T08:31:24;3;2;
32503;PMS5003;18953;45.930;13.640;2023-03-12T08:36:40;3;3;
32503;PMS5003;18953;45.930;13.640;2023-03-12T08:41:57;3;3;
32503;PMS5003;18953;45.930;13.640;2023-03-12T08:47:13;3;3;
32503;PMS5003;18953;45.930;13.640;2023-03-12T08:52:30;3;2;
32503;PMS5003;18953;45.930;13.640;2023-03-12T08:57:46;3;3;
32503;PMS5003;18953;45.930;13.640;2023-03-12T09:03:02;3;3;
32503;PMS5003;18953;45.930;13.640;2023-03-12T09:08:19;4;4;
32503;PMS5003;18953;45.930;13.640;2023-03-12T09:14:05;5;5;
32503;PMS5003;18953;45.930;13.640;2023-03-12T09:19:22;4;4;
32503;PMS5003;18953;45.930;13.640;2023-03-12T09:24:38;5;3;
32503;PMS5003;18953;45.930;13.640;2023-03-12T09:29:54;3;2;
32503;PMS5003;18953;45.930;13.640;2023-03-12T09:35:12;3;2;
32503;PMS5003;18953;45.930;13.640;2023-03-12T09:40:29;2;2;
32503;PMS5003;18953;45.930;13.640;2023-03-12T09:45:44;9;8;
32503;PMS5003;18953;45.930;13.640;2023-03-12T09:51:00;3;3;
32503;PMS5003;18953;45.930;13.640;2023-03-12T09:56:17;3;3;
32503;PMS5003;18953;45.930;13.640;2023-03-12T10:01:34;2;1;
32503;PMS5003;18953;45.930;13.640;2023-03-12T10:06:50;2;2;
32503;PMS5003;18953;45.930;13.640;2023-03-12T10:12:07;1;1;
32503;PMS5003;18953;45.930;13.640;2023-03-12T10:17:26;2;2;
32503;PMS5003;18953;45.930;13.640;2023-03-12T10:22:43;2;2;
32503;PMS5003;18953;45.930;13.640;2023-03-12T10:27:54;2;2;
32503;PMS5003;18953;45.930;13.640;2023-03-12T10:33:11;2;2;
32503;PMS5003;18953;45.930;13.640;2023-03-12T10:38:28;2;2;
32503;PMS5003;18953;45.930;13.640;2023-03-12T10:43:43;4;3;
32503;PMS5003;18953;45.930;13.640;2023-03-12T10:49:21;2;2;
32503;PMS5003;18953;45.930;13.640;2023-03-12T10:54:20;4;3;
32503;PMS5003;18953;45.930;13.640;2023-03-12T10:59:33;2;2;
32503;PMS5003;18953;45.930;13.640;2023-03-12T11:04:49;2;2;
32503;PMS5003;18953;45.930;13.640;2023-03-12T11:10:14;3;3;
32503;PMS5003;18953;45.930;13.640;2023-03-12T11:15:22;3;3;
32503;PMS5003;18953;45.930;13.640;2023-03-12T11:20:37;2;2;
32503;PMS5003;18953;45.930;13.640;2023-03-12T11:25:55;3;3;
32503;PMS5003;18953;45.930;13.640;2023-03-12T11:31:17;3;2;
32503;PMS5003;18953;45.930;13.640;2023-03-12T11:36:30;6;6;
32503;PMS5003;18953;45.930;13.640;2023-03-12T11:41:48;4;4;
32503;PMS5003;18953;45.930;13.640;2023-03-12T11:47:03;5;4;
32503;PMS5003;18953;45.930;13.640;2023-03-12T11:52:17;3;3;
32503;PMS5003;18953;45.930;13.640;2023-03-12T11:57:34;3;3;
32503;PMS5003;18953;45.930;13.640;2023-03-12T12:02:54;3;3;
32503;PMS5003;18953;45.930;13.640;2023-03-12T12:08:09;3;2;
32503;PMS5003;18953;45.930;13.640;2023-03-12T12:13:22;3;2;
32503;PMS5003;18953;45.930;13.640;2023-03-12T12:18:41;1;1;
32503;PMS5003;18953;45.930;13.640;2023-03-12T12:23:54;2;2;
32503;PMS5003;18953;45.930;13.640;2023-03-12T12:29:13;2;1;
32503;PMS5003;18953;45.930;13.640;2023-03-12T12:34:30;2;2;
32503;PMS5003;18953;45.930;13.640;2023-03-12T12:39:44;1;1;
32503;PMS5003;18953;45.930;13.640;2023-03-12T12:44:59;8;8;
32503;PMS5003;18953;45.930;13.640;2023-03-12T12:50:16;1;1;
32503;PMS5003;18953;45.930;13.640;2023-03-12T12:55:32;2;1;
32503;PMS5003;18953;45.930;13.640;2023-03-12T13:00:48;2;2;
32503;PMS5003;18953;45.930;13.640;2023-03-12T13:06:04;1;1;
32503;PMS5003;18953;45.930;13.640;2023-03-12T13:11:22;1;1;
32503;PMS5003;18953;45.930;13.640;2023-03-12T13:16:37;2;2;
32503;PMS5003;18953;45.930;13.640;2023-03-12T13:21:57;3;2;
32503;PMS5003;18953;45.930;13.640;2023-03-12T13:27:12;2;2;
32503;PMS5003;18953;45.930;13.640;2023-03-12T13:37:57;2;2;
32503;PMS5003;18953;45.930;13.640;2023-03-12T13:43:00;2;2;
32503;PMS5003;18953;45.930;13.640;2023-03-12T13:48:15;1;1;
32503;PMS5003;18953;45.930;13.640;2023-03-12T13:53:32;2;2;
32503;PMS5003;18953;45.930;13.640;2023-03-12T13:58:48;1;1;
32503;PMS5003;18953;45.930;13.640;2023-03-12T14:04:04;2;2;
32503;PMS5003;18953;45.930;13.640;2023-03-12T14:09:21;1;1;
32503;PMS5003;18953;45.930;13.640;2023-03-12T14:14:41;5;5;
32503;PMS5003;18953;45.930;13.640;2023-03-12T14:19:55;1;1;
32503;PMS5003;18953;45.930;13.640;2023-03-12T14:25:11;2;1;
32503;PMS5003;18953;45.930;13.640;2023-03-12T14:30:28;2;2;
32503;PMS5003;18953;45.930;13.640;2023-03-12T14:35:43;3;2;
32503;PMS5003;18953;45.930;13.640;2023-03-12T14:40:59;4;4;
32503;PMS5003;18953;45.930;13.640;2023-03-12T14:46:15;4;3;
32503;PMS5003;18953;45.930;13.640;2023-03-12T14:51:31;2;2;
32503;PMS5003;18953;45.930;13.640;2023-03-12T14:56:47;4;4;
32503;PMS5003;18953;45.930;13.640;2023-03-12T15:02:09;2;2;
32503;PMS5003;18953;45.930;13.640;2023-03-12T15:07:21;2;2;
32503;PMS5003;18953;45.930;13.640;2023-03-12T15:12:36;2;2;
32503;PMS5003;18953;45.930;13.640;2023-03-12T15:17:52;12;11;
32503;PMS5003;18953;45.930;13.640;2023-03-12T15:23:09;2;2;
32503;PMS5003;18953;45.930;13.640;2023-03-12T15:28:26;4;4;
32503;PMS5003;18953;45.930;13.640;2023-03-12T15:33:42;3;3;
32503;PMS5003;18953;45.930;13.640;2023-03-12T15:38:59;3;3;
32503;PMS5003;18953;45.930;13.640;2023-03-12T15:44:17;4;4;
32503;PMS5003;18953;45.930;13.640;2023-03-12T15:49:31;4;4;
32503;PMS5003;18953;45.930;13.640;2023-03-12T15:54:57;3;3;
32503;PMS5003;18953;45.930;13.640;2023-03-12T16:00:13;5;3;
32503;PMS5003;18953;45.930;13.640;2023-03-12T16:05:20;4;3;
32503;PMS5003;18953;45.930;13.640;2023-03-12T16:10:36;2;2;
32503;PMS5003;18953;45.930;13.640;2023-03-12T16:15:52;2;2;
32503;PMS5003;18953;45.930;13.640;2023-03-12T16:21:09;4;4;
32503;PMS5003;18953;45.930;13.640;2023-03-12T16:26:25;3;3;
32503;PMS5003;18953;45.930;13.640;2023-03-12T16:31:41;3;3;
32503;PMS5003;18953;45.930;13.640;2023-03-12T16:36:57;4;3;
32503;PMS5003;18953;45.930;13.640;2023-03-12T16:42:14;2;2;
32503;PMS5003;18953;45.930;13.640;2023-03-12T16:47:30;3;3;
32503;PMS5003;18953;45.930;13.640;2023-03-12T16:52:47;4;4;
32503;PMS5003;18953;45.930;13.640;2023-03-12T16:58:03;4;4;
32503;PMS5003;18953;45.930;13.640;2023-03-12T17:03:21;4;4;
32503;PMS5003;18953;45.930;13.640;2023-03-12T17:08:36;5;5;
32503;PMS5003;18953;45.930;13.640;2023-03-12T17:13:53;3;3;
32503;PMS5003;18953;45.930;13.640;2023-03-12T17:19:08;2;2;
32503;PMS5003;18953;45.930;13.640;2023-03-12T17:24:25;20;18;
32503;PMS5003;18953;45.930;13.640;2023-03-12T17:29:41;18;16;
32503;PMS5003;18953;45.930;13.640;2023-03-12T17:34:58;10;9;
32503;PMS5003;18953;45.930;13.640;2023-03-12T17:40:14;12;9;
32503;PMS5003;18953;45.930;13.640;2023-03-12T17:45:30;9;9;
32503;PMS5003;18953;45.930;13.640;2023-03-12T17:50:47;12;11;
32503;PMS5003;18953;45.930;13.640;2023-03-12T17:56:03;4;4;
32503;PMS5003;18953;45.930;13.640;2023-03-12T18:01:19;6;5;
32503;PMS5003;18953;45.930;13.640;2023-03-12T18:06:36;4;3;
32503;PMS5003;18953;45.930;13.640;2023-03-12T18:11:52;4;4;
32503;PMS5003;18953;45.930;13.640;2023-03-12T18:17:08;7;6;
32503;PMS5003;18953;45.930;13.640;2023-03-12T18:22:25;14;13;
32503;PMS5003;18953;45.930;13.640;2023-03-12T18:27:41;4;4;
32503;PMS5003;18953;45.930;13.640;2023-03-12T18:32:58;5;4;
32503;PMS5003;18953;45.930;13.640;2023-03-12T18:38:14;3;3;
32503;PMS5003;18953;45.930;13.640;2023-03-12T18:43:30;7;7;
32503;PMS5003;18953;45.930;13.640;2023-03-12T18:48:47;9;9;
32503;PMS5003;18953;45.930;13.640;2023-03-12T18:54:03;11;10;
32503;PMS5003;18953;45.930;13.640;2023-03-12T18:59:19;26;25;
32503;PMS5003;18953;45.930;13.640;2023-03-12T19:04:36;22;21;
32503;PMS5003;18953;45.930;13.640;2023-03-12T19:09:52;30;30;
32503;PMS5003;18953;45.930;13.640;2023-03-12T19:15:09;22;20;
32503;PMS5003;18953;45.930;13.640;2023-03-12T19:20:25;40;37;
32503;PMS5003;18953;45.930;13.640;2023-03-12T19:25:41;27;26;
32503;PMS5003;18953;45.930;13.640;2023-03-12T19:30:58;50;42;
32503;PMS5003;18953;45.930;13.640;2023-03-12T19:36:15;55;44;
32503;PMS5003;18953;45.930;13.640;2023-03-12T19:41:31;51;42;
32503;PMS5003;18953;45.930;13.640;2023-03-12T19:46:47;46;38;
32503;PMS5003;18953;45.930;13.640;2023-03-12T19:52:04;41;37;
32503;PMS5003;18953;45.930;13.640;2023-03-12T19:57:20;31;27;
32503;PMS5003;18953;45.930;13.640;2023-03-12T20:02:36;34;31;
32503;PMS5003;18953;45.930;13.640;2023-03-12T20:07:53;33;31;
32503;PMS5003;18953;45.930;13.640;2023-03-12T20:13:09;34;31;
32503;PMS5003;18953;45.930;13.640;2023-03-12T20:18:26;35;33;
32503;PMS5003;18953;45.930;13.640;2023-03-12T20:23:42;79;61;
32503;PMS5003;18953;45.930;13.640;2023-03-12T20:28:59;75;58;
32503;PMS5003;18953;45.930;13.640;2023-03-12T20:34:16;54;45;
32503;PMS5003;18953;45.930;13.640;2023-03-12T20:39:33;55;44;
32503;PMS5003;18953;45.930;13.640;2023-03-12T20:44:49;41;38;
32503;PMS5003;18953;45.930;13.640;2023-03-12T20:50:06;36;34;
32503;PMS5003;18953;45.930;13.640;2023-03-12T20:55:22;30;27;
32503;PMS5003;18953;45.930;13.640;2023-03-12T21:00:38;34;33;
32503;PMS5003;18953;45.930;13.640;2023-03-12T21:05:55;36;34;
32503;PMS5003;18953;45.930;13.640;2023-03-12T21:11:11;53;45;
32503;PMS5003;18953;45.930;13.640;2023-03-12T21:16:27;48;41;
32503;PMS5003;18953;45.930;13.640;2023-03-12T21:21:44;37;33;
32503;PMS5003;18953;45.930;13.640;2023-03-12T21:27:00;33;29;
32503;PMS5003;18953;45.930;13.640;2023-03-12T21:32:16;39;37;
32503;PMS5003;18953;45.930;13.640;2023-03-12T21:37:33;41;37;
32503;PMS5003;18953;45.930;13.640;2023-03-12T21:42:49;34;33;
32503;PMS5003;18953;45.930;13.640;2023-03-12T21:48:06;26;24;
32503;PMS5003;18953;45.930;13.640;2023-03-12T21:53:22;30;28;
32503;PMS5003;18953;45.930;13.640;2023-03-12T21:58:38;22;19;
32503;PMS5003;18953;45.930;13.640;2023-03-12T22:03:55;21;20;
32503;PMS5003;18953;45.930;13.640;2023-03-12T22:09:11;21;21;
32503;PMS5003;18953;45.930;13.640;2023-03-12T22:14:28;20;18;
32503;PMS5003;18953;45.930;13.640;2023-03-12T22:19:44;19;19;
32503;PMS5003;18953;45.930;13.640;2023-03-12T22:25:01;28;26;
32503;PMS5003;18953;45.930;13.640;2023-03-12T22:30:17;32;28;
32503;PMS5003;18953;45.930;13.640;2023-03-12T22:35:33;32;28;
32503;PMS5003;18953;45.930;13.640;2023-03-12T22:40:50;30;28;
32503;PMS5003;18953;45.930;13.640;2023-03-12T22:46:07;22;19;
32503;PMS5003;18953;45.930;13.640;2023-03-12T22:51:23;29;27;
32503;PMS5003;18953;45.930;13.640;2023-03-12T22:56:40;29;26;
32503;PMS5003;18953;45.930;13.640;2023-03-12T23:01:56;36;34;
32503;PMS5003;18953;45.930;13.640;2023-03-12T23:07:13;26;26;
32503;PMS5003;18953;45.930;13.640;2023-03-12T23:12:29;19;19;
32503;PMS5003;18953;45.930;13.640;2023-03-12T23:17:45;21;18;
32503;PMS5003;18953;45.930;13.640;2023-03-12T23:23:02;21;20;
32503;PMS5003;18953;45.930;13.640;2023-03-12T23:28:18;22;21;
32503;PMS5003;18953;45.930;13.640;2023-03-12T23:33:35;25;22;
32503;PMS5003;18953;45.930;13.640;2023-03-12T23:38:51;33;30;
32503;PMS5003;18953;45.930;13.640;2023-03-12T23:44:07;49;44;
32503;PMS5003;18953;45.930;13.640;2023-03-12T23:49:24;33;31;
32503;PMS5003;18953;45.930;13.640;2023-03-12T23:54:40;28;25;
32503;PMS5003;18953;45.930;13.640;2023-03-12T23:59:56;35;32;
